Strona główna
METAR-TAF:

METAR-TAF

Lotnisko :

Monticello, Kentucky, Stany Zjednoczone

Szerokość geograficzna: 36-51-19N, Długość geograficzna: 084-51-22W, wysokość: 294 m

Aktualna obserwacja pogody

Raport powstał 1 godzina i 3 minut temu, godzina 12:56 UTC
Wiatr 5 kt od północny wschód
Temperatura 17°C
Wilgotność 94%
Ciśnienie 1025 hPa
Widzialność: 16.1 km
bezchmurnie

METAR: KEKQ 211256Z AUTO 05005KT 10SM CLR 17/16 A3027 RMK AO2 SLP244 T01670156 PNO $

czas: 09:59 (13:59 UTC)


TAF: brakujący

Obserwacja i prognoza pogody dla ponad 4000 lotnisk (raport METAR i TAF).

Dostępne stacje oznaczono żółtymi i czerwonymi punktami na mapie.

Najedź kursorem aby zobaczyć nazwę stacji.

Kliknij aby zobaczyć obserwacje i prognozy pogody.

Aby zmienić mapę: kliknij na zielony przycisk z czarnym krzyżykiem, aby powiększyć; na zielony przycisk z myślnikiem, aby pomniejszyć; na zielone strzałki, aby przejść do map sąsiednich.


METAR-TAF: